Time;durP1;ratioP1;P1;durP2;ratioP2;P2;SDS_P1;SDS_P2;PMS_P1;PMS_P2;Temp;Humidity;BMP_temperature;BMP_pressure;BME280_temperature;BME280_humidity;BME280_pressure;Samples;Min_cycle;Max_cycle;Signal;HPM_P1;HPM_P2
2023/10/18 00:01:17;;;;;;;8.00;1.88;;;8.00;99.90;;;6.72;92.63;101421.53;6023146;23;20363;-83
2023/10/18 00:03:43;;;;;;;6.07;1.60;;;8.00;99.90;;;6.72;92.58;101426.78;6012649;23;20008;-84
2023/10/18 00:06:12;;;;;;;5.43;1.30;;;8.00;99.90;;;6.73;92.35;101428.50;6012880;23;20008;-83
2023/10/18 00:08:47;;;;;;;4.65;1.35;;;8.00;99.90;;;6.75;92.61;101434.56;5989265;23;20056;-83
2023/10/18 00:11:15;;;;;;;3.80;1.53;;;8.00;99.90;;;6.75;92.90;101429.31;6013121;23;20035;-84
2023/10/18 00:13:52;;;;;;;2.58;1.40;;;;;;;6.75;93.25;101431.94;6014250;23;20067;-84
2023/10/18 00:16:28;;;;;;;4.00;1.63;;;;;;;6.72;93.35;101430.25;6054497;23;20018;-83
2023/10/18 00:18:54;;;;;;;5.18;1.73;;;8.00;99.90;;;6.71;93.24;101425.88;6099153;23;20014;-84
2023/10/18 00:21:21;;;;;;;5.32;1.55;;;8.00;99.90;;;6.71;92.84;101423.28;6074338;23;20017;-84
2023/10/18 00:23:47;;;;;;;3.30;1.52;;;;;;;6.71;93.19;101428.50;6074950;23;20015;-83
2023/10/18 00:26:21;;;;;;;3.38;1.55;;;8.00;99.90;;;6.68;93.08;101420.72;6075193;23;20444;-83
2023/10/18 00:28:48;;;;;;;8.60;1.70;;;8.00;99.90;;;6.66;93.36;101424.28;6051017;23;20010;-84
2023/10/18 00:31:27;;;;;;;5.57;1.80;;;7.90;99.90;;;6.61;93.00;101420.84;6050458;23;20013;-83
2023/10/18 00:33:53;;;;;;;2.72;1.50;;;7.90;99.90;;;6.57;93.31;101414.84;6089326;23;20010;-85
2023/10/18 00:36:20;;;;;;;8.77;1.33;;;7.90;99.90;;;6.55;93.29;101408.78;6159868;23;20009;-85
2023/10/18 00:38:53;;;;;;;7.05;1.30;;;;;;;6.54;92.98;101412.28;6133610;23;20080;-83
2023/10/18 00:41:22;;;;;;;3.10;1.33;;;7.80;99.90;;;6.51;93.43;101405.34;6160478;23;20024;-83
2023/10/18 00:43:57;;;;;;;6.57;1.40;;;7.90;99.90;;;6.53;93.29;101402.72;6158650;23;20005;-83
2023/10/18 00:46:23;;;;;;;6.40;1.42;;;7.90;99.90;;;6.55;93.57;101400.94;6158395;23;20032;-84
2023/10/18 00:48:49;;;;;;;5.75;1.35;;;7.90;99.90;;;6.55;92.77;101401.78;6134142;23;20006;-83
2023/10/18 00:51:57;;;;;;;3.10;1.20;;;;;;;6.58;93.04;101409.56;6158123;23;20009;-82
2023/10/18 00:54:10;;;;;;;5.10;1.13;;;7.90;99.90;;;6.61;92.83;101413.91;6149128;23;20009;-85
2023/10/18 00:56:50;;;;;;;3.75;1.30;;;;;;;6.63;92.34;101411.22;6159713;23;20048;-83
2023/10/18 00:59:22;;;;;;;3.10;1.05;;;7.90;99.90;;;6.63;92.53;101414.72;6159216;23;20010;-83
2023/10/18 01:02:00;;;;;;;5.95;1.20;;;7.90;99.90;;;6.67;92.17;101413.75;6159071;23;20056;-84
2023/10/18 01:04:28;;;;;;;4.78;1.30;;;;;;;6.71;91.80;101414.56;6135368;23;20009;-84
2023/10/18 01:06:57;;;;;;;4.40;1.10;;;;;;;6.75;91.29;101414.47;6159143;23;20017;-83
2023/10/18 01:09:30;;;;;;;6.70;1.20;;;;;;;6.78;91.63;101414.44;6158362;23;20468;-85
2023/10/18 01:11:56;;;;;;;6.53;1.50;;;;;;;6.80;91.13;101409.13;6183658;23;20338;-84
2023/10/18 01:14:25;;;;;;;5.97;1.38;;;8.10;99.90;;;6.83;91.18;101403.00;6161323;23;20009;-84
2023/10/18 01:17:01;;;;;;;6.35;1.40;;;8.70;99.90;;;6.85;91.36;101402.06;6134568;23;20045;-84
2023/10/18 01:19:26;;;;;;;5.20;1.13;;;8.10;99.90;;;6.83;90.42;101390.78;6135706;23;20580;-83
2023/10/18 01:21:52;;;;;;;8.73;1.30;;;;;;;6.85;90.67;101391.59;6158687;23;20013;-84
2023/10/18 01:24:18;;;;;;;5.82;0.90;;;8.10;99.90;;;6.86;89.98;101389.84;6158434;23;20084;-83
2023/10/18 01:26:53;;;;;;;4.95;1.02;;;8.10;99.90;;;6.84;89.69;101394.25;6134624;23;20009;-83
2023/10/18 01:29:19;;;;;;;3.00;0.95;;;8.10;99.90;;;6.82;89.30;101394.28;6158353;23;20017;-83
2023/10/18 01:31:45;;;;;;;8.30;1.10;;;8.10;99.90;;;6.81;89.28;101391.69;6183332;23;20040;-82
2023/10/18 01:34:12;;;;;;;5.72;1.00;;;8.10;99.90;;;6.81;88.82;101396.94;6158104;23;20001;-84
2023/10/18 01:36:47;;;;;;;3.30;1.20;;;8.10;99.90;;;6.84;88.79;101399.47;6125578;23;20153;-83
2023/10/18 01:39:21;;;;;;;4.78;1.10;;;8.10;99.90;;;6.84;89.11;101400.34;6102600;23;20001;-83
2023/10/18 01:41:49;;;;;;;5.25;1.10;;;8.10;99.90;;;6.84;89.63;101389.00;6103954;23;20139;-83
2023/10/18 01:44:23;;;;;;;3.22;1.20;;;8.10;99.90;;;6.80;89.30;101384.72;6102995;23;20010;-84
2023/10/18 01:46:52;;;;;;;11.95;1.00;;;8.10;99.90;;;6.79;89.60;101383.88;6103157;23;20014;-84
2023/10/18 01:49:21;;;;;;;4.88;1.30;;;8.10;99.90;;;6.75;89.72;101385.69;6102765;23;20534;-83
2023/10/18 01:51:57;;;;;;;3.53;1.20;;;8.10;99.90;;;6.76;89.77;101386.56;6102976;23;20394;-83
2023/10/18 01:54:27;;;;;;;7.72;1.40;;;;;;;6.77;89.13;101383.03;6079420;23;20033;-84
2023/10/18 01:56:59;;;;;;;4.60;1.15;;;8.10;99.90;;;6.80;89.80;101389.97;6101318;23;20069;-84
2023/10/18 01:59:28;;;;;;;3.63;1.15;;;8.10;99.90;;;6.79;89.61;101386.50;6127054;23;20020;-83
2023/10/18 02:02:10;;;;;;;8.68;1.42;;;8.10;99.90;;;6.80;89.48;101380.34;6078469;23;20205;-84
2023/10/18 02:04:44;;;;;;;4.95;0.88;;;;;;;6.80;89.87;101382.97;6080568;23;20501;-83
2023/10/18 02:07:10;;;;;;;6.57;1.30;;;8.10;99.90;;;6.77;89.27;101372.56;6114889;23;20512;-84
2023/10/18 02:09:36;;;;;;;4.90;1.35;;;8.00;99.90;;;6.77;89.52;101377.81;6159666;23;20009;-82
2023/10/18 02:12:45;;;;;;;2.90;0.98;;;;;;;6.78;89.32;101380.41;6157869;23;20009;-84
2023/10/18 02:14:52;;;;;;;5.97;1.23;;;8.10;99.90;;;6.75;88.94;101371.75;6149264;23;20016;-84
2023/10/18 02:17:18;;;;;;;6.88;1.20;;;8.10;99.90;;;6.78;88.99;101383.03;6157437;23;20354;-83
2023/10/18 02:19:44;;;;;;;10.75;1.52;;;;;;;6.74;89.49;101364.78;6182573;23;20012;-84
2023/10/18 02:22:18;;;;;;;5.35;1.30;;;8.00;99.90;;;6.72;89.15;101362.19;6158682;23;20032;-84
2023/10/18 02:24:44;;;;;;;6.07;1.05;;;8.00;99.90;;;6.70;89.13;101357.91;6159053;23;20100;-84
2023/10/18 02:27:15;;;;;;;6.50;1.27;;;8.00;99.90;;;6.69;89.07;101361.38;6156972;23;20005;-83
2023/10/18 02:29:52;;;;;;;15.23;1.92;;;8.00;99.90;;;6.69;89.44;101370.09;6158114;23;20460;-84
2023/10/18 02:32:32;;;;;;;5.28;1.20;;;8.00;99.90;;;6.70;89.45;101363.97;6133868;23;20063;-83
2023/10/18 02:34:58;;;;;;;4.57;1.27;;;8.00;99.90;;;6.67;89.01;101353.56;6159058;23;20014;-84
2023/10/18 02:37:31;;;;;;;3.17;1.30;;;8.00;99.90;;;6.65;89.41;101347.53;6132328;23;20013;-84
2023/10/18 02:40:09;;;;;;;2.88;1.30;;;8.00;99.90;;;6.66;89.32;101357.09;6134021;23;20017;-84
2023/10/18 02:42:36;;;;;;;3.45;1.13;;;;;;;6.68;89.32;101360.53;6136931;23;20457;-83
2023/10/18 02:45:12;;;;;;;6.72;1.27;;;;;;;6.68;89.02;101350.06;6182520;23;20362;-84
2023/10/18 02:47:38;;;;;;;7.93;1.52;;;8.00;99.90;;;6.68;89.22;101350.06;6157497;23;20037;-83
2023/10/18 02:50:04;;;;;;;9.25;1.40;;;;;;;6.72;89.30;101345.66;6158630;23;20032;-85
2023/10/18 02:52:30;;;;;;;9.82;1.70;;;8.00;99.90;;;6.75;89.29;101346.41;6182658;23;20028;-84
2023/10/18 02:54:57;;;;;;;10.68;2.35;;;8.00;99.90;;;6.75;89.12;101340.34;6134056;23;20017;-83
2023/10/18 02:57:24;;;;;;;6.32;1.42;;;8.00;99.90;;;6.73;89.27;101348.19;6158259;23;20001;-84
2023/10/18 03:00:10;;;;;;;9.00;1.65;;;8.10;99.90;;;6.77;89.11;101349.00;6133694;23;20016;-83
2023/10/18 03:02:38;;;;;;;7.28;1.75;;;8.00;99.90;;;6.78;88.96;101348.09;6135866;23;20004;-83
2023/10/18 03:05:06;;;;;;;2.40;1.23;;;8.10;99.90;;;6.78;89.13;101345.50;6133775;23;20010;-83
2023/10/18 03:07:38;;;;;;;4.97;1.60;;;8.00;99.90;;;6.75;88.93;101341.19;6157368;23;20001;-84
2023/10/18 03:10:27;;;;;;;4.90;1.77;;;8.10;99.90;;;6.75;88.86;101340.34;6157901;23;20001;-84
2023/10/18 03:12:52;;;;;;;5.70;1.55;;;8.00;99.90;;;6.73;89.27;101336.88;6157939;23;20053;-84
2023/10/18 03:15:28;;;;;;;8.20;3.03;;;8.00;99.90;;;6.75;89.29;101351.66;6159677;23;20032;-82
2023/10/18 03:17:56;;;;;;;5.80;1.45;;;8.00;99.90;;;6.75;88.98;101346.41;6158507;23;20460;-84
2023/10/18 03:20:31;;;;;;;4.68;1.42;;;;;;;6.77;89.33;101344.63;6158287;23;20013;-83
2023/10/18 03:23:02;;;;;;;4.63;1.30;;;;;;;6.78;88.98;101341.13;6158269;23;20457;-84
2023/10/18 03:25:31;;;;;;;5.45;1.42;;;;;;;6.78;89.75;101341.13;6157980;23;20382;-84
2023/10/18 03:30:54;;;;;;;10.02;1.65;;;8.10;99.90;;;6.73;89.44;101329.03;6169765;23;20519;-83
2023/10/18 03:33:20;;;;;;;7.85;1.65;;;8.00;99.90;;;6.68;89.43;101323.91;6157492;23;20510;-83
2023/10/18 03:36:06;;;;;;;5.03;1.48;;;8.00;99.90;;;6.62;89.47;101317.94;6133562;23;20016;-83
2023/10/18 03:38:40;;;;;;;14.02;1.50;;;7.90;99.90;;;6.55;89.74;101325.03;6135725;23;20017;-82
2023/10/18 03:41:16;;;;;;;6.05;2.05;;;7.90;99.90;;;6.57;90.04;101328.50;6106012;23;20089;-83
2023/10/18 03:43:42;;;;;;;8.25;1.63;;;7.90;99.90;;;6.56;90.09;101324.13;6130117;23;20032;-83
2023/10/18 03:49:02;;;;;;;7.22;1.75;;;7.90;99.90;;;6.62;90.31;101325.78;6129207;23;20150;-83
2023/10/18 03:51:30;;;;;;;9.45;1.40;;;7.90;99.90;;;6.61;90.09;101305.72;6105320;23;20358;-82
2023/10/18 03:53:56;;;;;;;5.88;1.80;;;7.90;99.90;;;6.60;90.01;101312.72;6128336;23;20036;-81
2023/10/18 03:56:32;;;;;;;4.70;1.52;;;8.00;99.90;;;6.64;90.03;101317.00;6128511;23;20005;-83
2023/10/18 03:59:41;;;;;;;;;;;7.90;99.90;;;6.65;89.77;101318.75;6130704;23;20009;-83
2023/10/18 04:02:07;;;;;;;6.18;1.70;;;8.00;99.90;;;6.62;90.10;101308.31;6117811;23;20297;-82
2023/10/18 04:04:35;;;;;;;5.82;1.50;;;7.90;99.90;;;6.61;89.81;101314.47;6107875;23;20037;-82
2023/10/18 04:07:13;;;;;;;9.27;2.28;;;7.90;99.90;;;6.60;89.74;101312.72;6128775;23;20009;-83
2023/10/18 04:09:54;;;;;;;10.07;2.00;;;7.90;99.90;;;6.61;90.00;101303.09;6129234;23;20097;-82
2023/10/18 04:12:27;;;;;;;7.95;1.77;;;7.90;99.90;;;6.61;90.24;101296.16;6106925;23;20017;-83
2023/10/18 04:14:58;;;;;;;5.57;1.30;;;7.90;99.90;;;6.63;90.03;101306.56;6104723;23;20381;-83
2023/10/18 04:17:36;;;;;;;8.65;1.98;;;7.90;99.90;;;6.65;89.91;101307.38;6106194;23;20088;-83
2023/10/18 04:20:31;;;;;;;6.70;1.58;;;8.00;99.90;;;6.65;90.50;101300.41;6106347;23;20354;-83
2023/10/18 04:22:57;;;;;;;6.03;1.52;;;8.00;99.90;;;6.69;90.41;101288.97;6109756;23;20354;-82
2023/10/18 04:25:30;;;;;;;7.43;1.48;;;8.00;99.90;;;6.69;90.10;101285.50;6128495;23;20048;-83
2023/10/18 04:27:59;;;;;;;12.57;2.25;;;8.00;99.90;;;6.67;89.98;101289.91;6129947;23;20438;-82
2023/10/18 04:30:38;;;;;;;10.18;1.98;;;8.00;99.90;;;6.69;90.31;101294.19;6105127;23;20016;-83
2023/10/18 04:35:45;;;;;;;4.13;1.55;;;7.90;99.90;;;6.62;90.06;101282.16;6134437;23;20013;-82
2023/10/18 04:38:32;;;;;;;6.00;1.30;;;8.00;99.90;;;6.58;90.20;101281.34;6129708;23;20354;-82
2023/10/18 04:43:32;;;;;;;5.97;1.73;;;7.90;99.90;;;6.55;90.16;101275.34;6131593;23;20044;-82
2023/10/18 04:46:23;;;;;;;5.50;1.40;;;7.90;99.90;;;6.55;90.15;101275.34;6130889;23;20005;-82
2023/10/18 04:51:27;;;;;;;8.95;1.42;;;7.80;99.90;;;6.50;90.49;101258.84;6130381;23;20021;-80
2023/10/18 04:54:03;;;;;;;8.73;1.58;;;7.80;99.90;;;6.48;90.18;101261.53;6105470;23;20009;-81
2023/10/18 04:56:32;;;;;;;8.85;1.60;;;7.80;99.90;;;6.47;90.33;101259.78;6130906;23;20005;-82
2023/10/18 05:04:31;;;;;;;6.35;2.10;;;7.80;99.90;;;6.50;90.73;101261.47;6131748;23;20576;-82
2023/10/18 05:10:05;;;;;;;9.60;2.08;;;7.80;99.90;;;6.53;90.29;101264.03;5962309;23;20088;-83
2023/10/18 05:12:42;;;;;;;7.72;2.10;;;7.80;99.90;;;6.53;90.52;101258.81;5959184;23;20442;-82
2023/10/18 05:15:17;;;;;;;7.43;2.15;;;7.90;99.90;;;6.54;91.02;101265.75;5958658;24;20040;-82
2023/10/18 05:17:50;;;;;;;13.00;2.30;;;7.90;99.90;;;6.52;90.91;101260.56;5957012;24;20388;-83
2023/10/18 05:22:52;;;;;;;8.73;2.05;;;7.80;99.90;;;6.52;91.14;101257.06;5957253;24;20096;-83
2023/10/18 05:25:23;;;;;;;7.05;2.33;;;7.80;99.90;;;6.49;91.24;101254.53;5956987;24;20012;-81
2023/10/18 05:28:07;;;;;;;8.35;2.70;;;7.80;99.90;;;6.49;90.75;101259.75;5957112;23;20032;-81
2023/10/18 05:36:29;;;;;;;12.40;2.25;;;7.80;99.90;;;6.47;90.63;101265.00;5959962;23;20008;-83
2023/10/18 05:42:13;;;;;;;7.15;2.20;;;7.80;99.90;;;6.49;90.56;101265.00;5907453;24;20097;-82
2023/10/18 05:44:42;;;;;;;10.05;2.35;;;7.80;99.90;;;6.48;90.75;101261.53;5901170;24;20477;-81
2023/10/18 05:47:08;;;;;;;12.52;2.30;;;7.80;99.90;;;6.47;90.45;101272.00;5997297;23;20362;-82
2023/10/18 05:49:40;;;;;;;8.63;2.00;;;7.80;99.90;;;6.48;90.71;101284.19;6064585;23;20010;-83
2023/10/18 05:54:37;;;;;;;7.25;1.92;;;7.80;99.90;;;6.45;90.52;101276.41;6065282;23;20066;-83
2023/10/18 05:57:05;;;;;;;7.88;1.95;;;7.70;99.90;;;6.41;90.76;101273.00;6064563;23;20018;-83
2023/10/18 06:02:09;;;;;;;16.05;2.13;;;7.70;99.90;;;6.36;90.19;101273.09;6067296;23;20011;-82
2023/10/18 06:05:19;;;;;;;4.50;1.60;;;7.70;99.90;;;6.34;90.48;101274.00;6064060;23;20034;-82
2023/10/18 06:07:26;;;;;;;6.68;2.03;;;7.70;99.90;;;6.30;90.80;101280.19;6058137;23;20070;-83
2023/10/18 06:09:57;;;;;;;3.90;1.63;;;7.60;99.90;;;6.26;90.59;101273.31;6065062;23;20007;-83
2023/10/18 06:12:30;;;;;;;10.13;2.20;;;7.60;99.90;;;6.23;90.74;101276.00;6065308;23;20022;-83
2023/10/18 06:14:57;;;;;;;12.02;2.13;;;7.50;99.90;;;6.21;90.70;101281.25;6064839;23;20526;-82
2023/10/18 06:17:30;;;;;;;6.88;2.05;;;7.50;99.90;;;6.21;90.87;101289.09;6103882;23;20009;-83
2023/10/18 06:19:59;;;;;;;7.53;2.47;;;7.50;99.90;;;6.20;91.11;101284.75;6131955;23;20013;-83
2023/10/18 06:22:43;;;;;;;6.68;2.15;;;7.60;99.90;;;6.22;90.98;101287.31;6104528;23;20013;-82
2023/10/18 06:25:25;;;;;;;6.05;1.95;;;7.60;99.90;;;6.23;91.29;101294.28;6133328;23;20036;-82
2023/10/18 06:27:54;;;;;;;7.95;2.58;;;7.60;99.90;;;6.25;91.68;101290.75;6107510;23;20088;-82
2023/10/18 06:30:19;;;;;;;10.02;1.83;;;7.60;99.90;;;6.27;91.24;101291.59;6104654;23;20009;-82
2023/10/18 06:32:46;;;;;;;7.03;2.20;;;7.60;99.90;;;6.27;91.25;101291.59;6129940;23;20017;-82
2023/10/18 06:35:17;;;;;;;10.00;2.10;;;7.60;99.90;;;6.30;91.26;101295.88;6128645;23;20064;-83
2023/10/18 06:37:50;;;;;;;8.23;2.08;;;7.60;99.90;;;6.34;90.81;101298.41;6155144;23;20285;-83
2023/10/18 06:43:08;;;;;;;7.20;2.20;;;;;;;6.37;91.00;101287.03;6018992;23;20079;-82
2023/10/18 06:45:38;;;;;;;8.75;2.10;;;7.70;99.90;;;6.39;91.09;101294.84;6035954;23;20052;-82
2023/10/18 06:48:12;;;;;;;5.88;2.35;;;7.70;99.90;;;6.41;90.98;101293.91;5989116;23;20011;-81
2023/10/18 06:50:40;;;;;;;6.45;2.05;;;7.70;99.90;;;6.44;90.58;101295.63;5990446;23;20083;-81
2023/10/18 06:53:15;;;;;;;11.40;2.33;;;7.80;99.90;;;6.50;90.78;101303.31;6011603;23;20019;-82
2023/10/18 06:55:44;;;;;;;11.63;2.22;;;7.80;99.90;;;6.57;91.10;101303.19;5990361;23;20022;-82
2023/10/18 07:01:04;;;;;;;9.18;1.83;;;7.90;99.90;;;6.69;90.25;101302.06;6015696;23;20015;-82
2023/10/18 07:03:37;;;;;;;5.35;1.90;;;8.00;99.90;;;6.74;90.48;101300.22;6013149;23;20277;-82
2023/10/18 07:06:16;;;;;;;6.80;2.08;;;8.10;99.90;;;6.82;90.63;101300.03;5989532;23;20019;-82
2023/10/18 07:08:45;;;;;;;6.50;1.65;;;8.10;99.90;;;6.89;90.09;101295.53;5989623;23;20086;-81
2023/10/18 07:11:22;;;;;;;8.13;2.25;;;8.20;99.90;;;6.94;89.92;101298.91;5988387;23;20008;-82
2023/10/18 07:13:50;;;;;;;8.02;1.90;;;;;;;7.01;89.72;101294.41;5990073;23;20455;-82
2023/10/18 07:21:48;;;;;;;9.80;2.70;;;8.40;99.90;;;7.10;88.79;101299.41;6135983;23;20017;-82
2023/10/18 07:24:17;;;;;;;10.70;3.70;;;8.40;99.90;;;7.11;87.78;101295.91;6128465;23;20012;-81
2023/10/18 07:26:43;;;;;;;8.27;2.42;;;8.40;99.90;;;7.14;87.82;101291.44;6126368;23;20005;-83
2023/10/18 07:29:15;;;;;;;7.32;2.13;;;8.40;99.90;;;7.18;87.31;101297.50;6103148;23;20088;-81
2023/10/18 07:31:46;;;;;;;11.23;3.20;;;8.50;99.90;;;7.23;87.51;101302.63;6128876;23;20060;-82
2023/10/18 07:34:19;;;;;;;7.80;1.85;;;8.50;99.90;;;7.26;87.92;101305.19;6103948;23;20020;-82
2023/10/18 07:36:45;;;;;;;4.50;1.45;;;8.50;99.90;;;7.32;87.83;101305.00;6103556;23;20011;-82
2023/10/18 07:39:16;;;;;;;5.13;1.65;;;8.60;99.90;;;7.36;88.39;101289.22;6127980;23;20010;-82
2023/10/18 07:41:53;;;;;;;8.30;1.52;;;8.70;99.90;;;7.44;87.71;101296.88;6127229;23;20045;-82
2023/10/18 07:44:19;;;;;;;8.75;1.52;;;8.70;99.90;;;7.47;87.80;101288.06;6127900;23;20037;-81
2023/10/18 07:46:50;;;;;;;8.55;2.00;;;8.70;99.90;;;7.54;87.24;101281.78;6128025;23;20428;-82
2023/10/18 07:49:15;;;;;;;5.43;1.60;;;8.80;99.90;;;7.61;87.08;101291.22;6127917;23;20056;-81
2023/10/18 07:52:04;;;;;;;10.32;1.38;;;8.90;99.90;;;7.69;87.30;101293.63;6127344;23;20006;-82
2023/10/18 07:54:38;;;;;;;8.40;1.60;;;9.00;99.90;;;7.76;88.00;101295.22;6132322;23;20389;-82
2023/10/18 07:57:07;;;;;;;5.88;1.40;;;9.00;99.90;;;7.80;87.13;101294.22;6103730;23;20569;-83
2023/10/18 07:59:45;;;;;;;5.45;1.40;;;9.00;99.90;;;7.84;86.43;101288.00;6128401;23;20016;-82
2023/10/18 08:02:26;;;;;;;9.52;1.48;;;9.10;99.90;;;7.87;85.26;101287.06;6129559;23;20017;-82
2023/10/18 08:05:00;;;;;;;8.40;1.40;;;9.10;99.90;;;7.86;84.50;101288.81;6107759;23;20017;-82
2023/10/18 08:07:29;;;;;;;7.90;1.40;;;9.10;99.90;;;7.88;84.35;101288.75;6130816;23;20002;-83
2023/10/18 08:09:57;;;;;;;5.88;1.77;;;9.20;99.90;;;7.91;84.17;101288.69;6131396;23;20438;-82
2023/10/18 08:12:33;;;;;;;7.35;1.30;;;9.20;99.90;;;7.91;83.72;101283.47;6154713;23;20017;-82
2023/10/18 08:14:59;;;;;;;8.25;1.63;;;9.20;99.90;;;7.91;83.20;101286.94;6131508;23;20041;-81
2023/10/18 08:17:47;;;;;;;6.15;1.15;;;9.20;99.90;;;7.94;83.04;101289.47;6105462;23;20005;-82
2023/10/18 08:23:57;;;;;;;5.13;1.38;;;9.20;99.90;;;8.00;83.59;101277.97;6141117;23;20091;-81
2023/10/18 08:26:05;;;;;;;7.80;1.70;;;9.30;99.90;;;8.03;83.75;101283.09;6124777;23;20016;-82
2023/10/18 08:28:46;;;;;;;2.80;1.23;;;9.30;99.90;;;8.08;83.75;101282.97;6132087;23;20005;-84
2023/10/18 08:31:26;;;;;;;5.38;1.50;;;9.40;99.90;;;8.13;84.12;101289.84;6133979;23;20009;-83
2023/10/18 08:33:56;;;;;;;4.85;1.35;;;9.40;99.90;;;8.17;83.62;101280.97;6132325;23;20001;-82
2023/10/18 08:36:31;;;;;;;7.45;1.40;;;9.40;99.90;;;8.20;83.77;101280.03;6105330;23;20005;-81
2023/10/18 08:39:04;;;;;;;4.70;1.20;;;9.50;99.90;;;8.25;83.18;101275.53;6133146;23;20513;-81
2023/10/18 08:41:37;;;;;;;6.55;2.03;;;9.50;99.90;;;8.32;83.42;101284.09;6130260;23;20315;-83
2023/10/18 08:44:16;;;;;;;6.88;1.83;;;9.60;99.90;;;8.38;83.59;101286.50;6131776;23;20334;-82
2023/10/18 08:49:33;;;;;;;5.35;1.60;;;9.80;99.90;;;8.56;83.33;101285.16;6134408;23;20028;-83
2023/10/18 08:52:08;;;;;;;5.95;1.77;;;9.80;99.90;;;8.66;83.68;101288.38;6129240;23;20781;-82
2023/10/18 08:54:36;;;;;;;8.27;2.15;;;9.90;99.90;;;8.74;83.34;101283.75;6131881;23;20033;-82
2023/10/18 08:57:11;;;;;;;10.35;2.47;;;9.90;99.90;;;8.80;82.75;101289.69;6130005;23;20088;-82
2023/10/18 08:59:50;;;;;;;8.93;2.50;;;10.00;99.90;;;8.82;81.71;101280.00;6131152;23;20020;-81
2023/10/18 09:02:25;;;;;;;6.90;1.70;;;10.00;99.90;;;8.86;81.26;101290.44;6130326;23;20028;-80
2023/10/18 09:04:59;;;;;;;5.13;1.65;;;10.00;99.90;;;8.88;81.17;101293.88;6129260;23;20024;-80
2023/10/18 09:07:49;;;;;;;6.95;1.63;;;10.10;99.90;;;8.92;81.28;101296.34;6129452;23;20006;-80
2023/10/18 09:18:35;;;;;;;8.90;2.03;;;10.30;99.90;;;9.13;80.42;101292.16;6126764;23;20012;-78
2023/10/18 09:21:09;;;;;;;11.70;2.17;;;10.40;99.90;;;9.19;80.67;101283.25;6125826;23;20253;-80
2023/10/18 09:23:37;;;;;;;7.43;2.17;;;10.40;99.90;;;9.28;80.52;101282.09;6129957;23;20426;-80
2023/10/18 09:26:18;;;;;;;13.00;2.42;;;10.50;99.90;;;9.33;80.46;101291.56;6105567;23;20008;-80
2023/10/18 09:28:44;;;;;;;6.28;2.60;;;10.60;99.90;;;9.40;79.92;101292.22;6127730;23;20013;-81
2023/10/18 09:31:22;;;;;;;4.80;2.03;;;10.70;99.90;;;9.52;79.55;101298.81;6127688;23;20029;-81
2023/10/18 09:34:07;;;;;;;8.15;2.65;;;10.80;99.90;;;9.63;79.50;101296.69;6127812;23;20010;-80
2023/10/18 09:36:43;;;;;;;12.38;2.70;;;10.90;99.90;;;9.79;78.73;101297.91;6105199;23;20020;-79
2023/10/18 09:39:09;;;;;;;9.43;2.93;;;11.00;99.90;;;9.88;78.69;101299.34;6128895;23;20108;-81
2023/10/18 09:41:39;;;;;;;12.43;2.95;;;11.00;99.90;;;9.96;78.71;101297.31;6127208;23;20014;-81
2023/10/18 09:44:08;;;;;;;10.57;3.17;;;11.20;99.90;;;10.07;78.19;101299.56;6100584;23;20065;-81
2023/10/18 09:46:37;;;;;;;7.32;3.28;;;11.20;99.90;;;10.12;77.35;101300.25;6104305;23;20040;-82
2023/10/18 09:49:19;;;;;;;9.98;3.08;;;11.30;99.90;;;10.15;76.79;101305.44;6127865;23;21648;-81
2023/10/18 09:51:53;;;;;;;8.00;2.70;;;11.30;99.90;;;10.20;76.37;101303.50;6104966;23;20044;-81
2023/10/18 09:54:25;;;;;;;7.90;3.13;;;11.40;99.90;;;10.31;76.50;101302.28;6126778;23;20068;-79
2023/10/18 09:56:57;;;;;;;11.55;2.75;;;11.50;99.90;;;10.35;76.55;101299.47;6127496;23;20545;-81
2023/10/18 09:59:47;;;;;;;6.93;2.65;;;11.50;99.90;;;10.35;75.77;101312.63;6128057;23;20013;-81
2023/10/18 10:02:24;;;;;;;11.00;2.97;;;11.50;99.90;;;10.34;75.63;101312.69;6130904;23;20013;-81
2023/10/18 10:05:04;;;;;;;9.85;2.60;;;11.50;99.90;;;10.36;75.96;101314.34;6128787;23;20350;-80
2023/10/18 10:07:39;;;;;;;6.80;2.58;;;11.50;99.90;;;10.35;75.52;101309.16;6128675;23;20020;-81
2023/10/18 10:10:17;;;;;;;9.10;2.97;;;11.50;99.90;;;10.31;75.77;101311.03;6127870;23;20013;-80
2023/10/18 10:12:48;;;;;;;13.25;2.70;;;11.50;99.90;;;10.27;75.26;101306.75;6129774;23;20009;-80
2023/10/18 10:15:14;;;;;;;8.52;2.83;;;11.50;99.90;;;10.23;75.35;101300.72;6102334;23;20378;-79
2023/10/18 10:17:56;;;;;;;8.20;2.75;;;11.40;99.90;;;10.21;75.18;101306.97;6126614;23;20032;-79
2023/10/18 10:20:40;;;;;;;7.22;2.53;;;11.40;99.90;;;10.21;75.53;101301.69;6104897;23;20389;-79
2023/10/18 10:23:14;;;;;;;14.88;3.03;;;11.40;99.90;;;10.19;75.57;101300.91;6130738;23;20453;-78
2023/10/18 10:26:01;;;;;;;9.45;3.42;;;11.40;99.90;;;10.20;75.62;101292.09;6125028;23;20085;-80
2023/10/18 10:31:53;;;;;;;5.28;2.40;;;11.40;99.90;;;10.19;75.75;101283.31;6154323;23;20019;-80
2023/10/18 10:34:35;;;;;;;7.38;2.50;;;11.40;99.90;;;10.23;75.33;101289.34;6103382;23;20485;-80
2023/10/18 10:37:23;;;;;;;14.55;3.42;;;11.40;99.90;;;10.26;75.64;101289.25;6128700;23;20006;-81
2023/10/18 10:42:52;;;;;;;10.93;2.70;;;11.50;99.90;;;10.31;75.76;101283.84;6133558;23;19916;-82
2023/10/18 10:53:58;;;;;;;7.95;2.40;;;11.60;99.90;;;10.48;75.23;101268.28;6154604;23;20020;-79
2023/10/18 10:56:27;;;;;;;10.57;2.20;;;11.70;99.90;;;10.53;75.62;101266.34;6103510;23;20012;-82
2023/10/18 11:01:46;;;;;;;6.30;1.88;;;11.80;99.90;;;10.65;75.61;101259.75;6125538;23;20014;-81
2023/10/18 11:04:28;;;;;;;5.95;2.00;;;11.80;99.90;;;10.69;75.84;101264.00;6152687;23;20353;-81
2023/10/18 11:07:10;;;;;;;3.75;1.80;;;11.90;99.90;;;10.75;75.32;101260.25;6152083;23;20028;-81
2023/10/18 11:09:38;;;;;;;4.85;1.70;;;11.90;99.90;;;10.83;76.13;101263.44;6105785;23;20052;-81
2023/10/18 11:12:12;;;;;;;11.27;2.15;;;12.00;99.90;;;10.90;75.33;101264.06;6104364;23;20002;-81
2023/10/18 11:14:38;;;;;;;9.05;2.20;;;12.10;99.90;;;10.95;75.02;101262.97;6127335;23;20812;-79
2023/10/18 11:19:59;;;;;;;;;;;12.10;99.90;;;11.11;75.57;101255.31;6132012;23;20009;-79
2023/10/18 11:25:15;;;;;;;8.35;2.63;;;12.40;99.90;;;11.31;75.13;101253.63;6130702;23;20064;-79
2023/10/18 11:27:44;;;;;;;8.90;2.50;;;12.50;99.90;;;11.39;74.89;101259.44;6126084;23;20005;-80
2023/10/18 11:30:16;;;;;;;10.20;2.38;;;12.50;99.90;;;11.47;74.61;101254.72;6032476;23;20027;-79
2023/10/18 11:32:50;;;;;;;6.82;2.70;;;12.60;99.90;;;11.48;73.57;101257.28;6019357;23;20014;-79
2023/10/18 11:38:11;;;;;;;12.73;2.63;;;12.70;99.90;;;11.52;73.25;101252.75;6023923;23;20085;-79
2023/10/18 11:40:40;;;;;;;9.00;3.03;;;12.70;99.90;;;11.60;73.70;101257.69;5995190;23;20018;-80
2023/10/18 11:43:12;;;;;;;6.55;2.58;;;12.70;99.90;;;11.69;73.13;101255.50;6060574;23;20014;-80
2023/10/18 11:45:45;;;;;;;8.95;2.70;;;12.80;99.90;;;11.78;72.83;101248.97;6043953;23;20033;-80
2023/10/18 11:48:20;;;;;;;9.65;2.30;;;12.90;99.90;;;11.76;72.42;101255.25;6021894;23;20086;-79
2023/10/18 11:50:48;;;;;;;9.02;2.25;;;12.80;99.90;;;11.73;72.18;101255.38;6014542;23;20025;-79
2023/10/18 11:53:20;;;;;;;5.53;2.28;;;12.80;99.90;;;11.69;72.45;101258.16;6060393;23;20030;-80
2023/10/18 11:55:58;;;;;;;7.68;2.53;;;12.80;99.90;;;11.65;72.58;101238.09;6033816;23;20077;-79
2023/10/18 11:58:26;;;;;;;8.23;2.40;;;12.80;99.90;;;11.67;72.90;101236.25;6018884;23;20086;-80
2023/10/18 12:01:00;;;;;;;9.32;2.97;;;12.80;99.90;;;11.72;73.33;101235.19;6011160;23;20055;-80
2023/10/18 12:03:27;;;;;;;6.57;2.08;;;12.90;99.90;;;11.77;72.82;101233.22;5989987;23;20018;-80
2023/10/18 12:05:57;;;;;;;7.57;2.28;;;12.90;99.90;;;11.75;71.98;101224.50;6061627;23;20006;-80
2023/10/18 12:08:24;;;;;;;9.07;2.20;;;12.80;99.90;;;11.69;71.58;101223.00;6022453;23;20011;-80
2023/10/18 12:10:56;;;;;;;7.50;2.17;;;12.80;99.90;;;11.66;71.75;101217.84;6028441;23;20010;-79
2023/10/18 12:13:22;;;;;;;4.30;1.60;;;12.80;99.90;;;11.69;72.47;101215.94;6027796;23;20466;-80
2023/10/18 12:15:52;;;;;;;7.85;2.10;;;12.80;99.90;;;11.74;72.23;101220.16;6048986;23;20026;-79
2023/10/18 12:18:21;;;;;;;9.55;1.83;;;12.90;99.90;;;11.74;71.77;101220.16;6026887;23;20327;-79
2023/10/18 12:20:46;;;;;;;11.80;2.88;;;12.90;99.90;;;11.75;72.27;101211.31;6050290;23;20025;-80